createdAt,value
2022-12-13T00:01:56.635Z,99660.47
2022-12-13T00:04:27.975Z,99663.03
2022-12-13T00:06:56.517Z,99667.22
2022-12-13T00:09:25.044Z,99654.34
2022-12-13T00:11:54.725Z,99660.34
2022-12-13T00:14:23.047Z,99662.00
2022-12-13T00:16:52.992Z,99654.34
2022-12-13T00:19:22.171Z,99655.03
2022-12-13T00:21:52.593Z,99654.13
2022-12-13T00:24:21.033Z,99651.47
2022-12-13T00:26:49.400Z,99652.22
2022-12-13T00:29:18.077Z,99649.69
2022-12-13T00:32:00.099Z,99647.91
2022-12-13T00:34:30.911Z,99650.34
2022-12-13T00:37:00.118Z,99648.59
2022-12-13T00:39:29.367Z,99646.81
2022-12-13T00:41:58.190Z,99641.69
2022-12-13T00:44:27.671Z,99637.38
2022-12-13T00:46:56.529Z,99632.13
2022-12-13T00:49:25.153Z,99633.81
2022-12-13T00:51:55.049Z,99631.25
2022-12-13T00:54:23.502Z,99633.81
2022-12-13T00:56:52.847Z,99629.50
2022-12-13T00:59:21.329Z,99629.50
2022-12-13T01:01:50.124Z,99630.28
2022-12-13T01:04:18.896Z,99641.25
2022-12-13T01:06:51.433Z,99639.47
2022-12-13T01:09:25.458Z,99636.00
2022-12-13T01:11:58.991Z,99629.94
2022-12-13T01:14:28.189Z,99632.38
2022-12-13T01:16:56.707Z,99624.59
2022-12-13T01:19:26.227Z,99634.78
2022-12-13T01:21:56.182Z,99635.47
2022-12-13T01:24:26.646Z,99631.13
2022-12-13T01:26:57.120Z,99625.91
2022-12-13T01:29:27.461Z,99639.56
2022-12-13T01:31:55.944Z,99636.75
2022-12-13T01:34:26.698Z,99645.41
2022-12-13T01:36:58.059Z,99652.94
2022-12-13T01:39:29.031Z,99656.25
2022-12-13T01:42:02.764Z,99659.63
2022-12-13T01:45:02.645Z,99661.16
2022-12-13T01:47:39.262Z,99657.50
2022-12-13T01:50:11.962Z,99659.03
2022-12-13T01:52:41.972Z,99662.34
2022-12-13T01:55:13.232Z,99665.91
2022-12-13T01:57:46.110Z,99658.00
2022-12-13T02:00:17.166Z,99655.38
2022-12-13T02:02:46.728Z,99646.69
2022-12-13T02:05:24.386Z,99650.91
2022-12-13T02:07:54.381Z,99645.59
2022-12-13T02:10:25.324Z,99648.91
2022-12-13T02:12:53.857Z,99646.22
2022-12-13T02:15:23.365Z,99644.56
2022-12-13T02:18:23.516Z,99646.88
2022-12-13T02:21:13.205Z,99661.19
2022-12-13T02:24:44.146Z,99646.44
2022-12-13T02:27:42.958Z,99658.28
2022-12-13T02:30:35.544Z,99653.97
2022-12-13T02:33:27.367Z,99658.94
2022-12-13T02:36:09.899Z,99657.16
2022-12-13T02:38:46.975Z,99648.59
2022-12-13T02:41:21.831Z,99650.25
2022-12-13T02:44:01.065Z,99645.06
2022-12-13T02:46:37.330Z,99649.28
2022-12-13T02:49:08.788Z,99644.19
2022-12-13T02:51:39.800Z,99650.06
2022-12-13T02:54:08.644Z,99644.06
2022-12-13T02:56:37.253Z,99644.81
2022-12-13T02:59:13.005Z,99638.97
2022-12-13T03:02:10.217Z,99637.09
2022-12-13T03:05:11.082Z,99633.53
2022-12-13T03:07:47.703Z,99638.38
2022-12-13T03:10:23.080Z,99636.63
2022-12-13T03:13:17.617Z,99643.47
2022-12-13T03:15:54.420Z,99638.16
2022-12-13T03:18:27.847Z,99634.72
2022-12-13T03:20:59.832Z,99630.50
2022-12-13T03:23:29.341Z,99637.25
2022-12-13T03:26:03.106Z,99640.69
2022-12-13T03:28:31.464Z,99638.91
2022-12-13T03:31:00.205Z,99641.47
2022-12-13T03:33:29.966Z,99636.38
2022-12-13T03:35:58.828Z,99640.56
2022-12-13T03:38:28.677Z,99632.81
2022-12-13T03:41:01.146Z,99629.47
2022-12-13T03:43:30.851Z,99630.25
2022-12-13T03:45:59.233Z,99623.41
2022-12-13T03:48:28.997Z,99631.06
2022-12-13T03:50:57.985Z,99619.84
2022-12-13T03:53:33.132Z,99620.59
2022-12-13T03:56:04.574Z,99612.84
2022-12-13T03:58:36.303Z,99615.28
2022-12-13T04:01:08.183Z,99609.31
2022-12-13T04:03:39.524Z,99612.63
2022-12-13T04:06:08.815Z,99609.94
2022-12-13T04:08:39.877Z,99607.31
2022-12-13T04:11:22.928Z,99614.94
2022-12-13T04:13:51.887Z,99613.03
2022-12-13T04:16:20.505Z,99619.91
2022-12-13T04:18:50.874Z,99617.13
2022-12-13T04:21:19.414Z,99622.19
2022-12-13T04:23:47.777Z,99622.19
2022-12-13T04:26:16.361Z,99614.56
2022-12-13T04:28:49.385Z,99616.13
2022-12-13T04:31:21.012Z,99613.59
2022-12-13T04:33:51.359Z,99625.44
2022-12-13T04:36:31.922Z,99623.63
2022-12-13T04:39:02.525Z,99622.75
2022-12-13T04:41:36.995Z,99626.06
2022-12-13T04:44:07.267Z,99628.47
2022-12-13T04:46:55.934Z,99620.75
2022-12-13T04:49:31.695Z,99617.19
2022-12-13T04:52:02.213Z,99604.44
2022-12-13T04:54:36.414Z,99604.44
2022-12-13T04:57:08.469Z,99595.03
2022-12-13T04:59:37.896Z,99597.56
2022-12-13T05:02:07.821Z,99594.94
2022-12-13T05:04:37.900Z,99589.72
2022-12-13T05:07:06.347Z,99590.59
2022-12-13T05:09:34.800Z,99586.91
2022-12-13T05:12:03.262Z,99589.59
2022-12-13T05:14:32.239Z,99592.81
2022-12-13T05:17:01.080Z,99585.94
2022-12-13T05:19:31.180Z,99579.94
2022-12-13T05:22:02.376Z,99579.94
2022-12-13T05:24:32.154Z,99577.25
2022-12-13T05:27:01.165Z,99571.16
2022-12-13T05:29:29.894Z,99571.94
2022-12-13T05:31:59.203Z,99582.13
2022-12-13T05:34:27.906Z,99573.47
2022-12-13T05:36:56.420Z,99585.31
2022-12-13T05:39:28.650Z,99577.69
2022-12-13T05:42:01.558Z,99579.34
2022-12-13T05:44:32.484Z,99578.56
2022-12-13T05:47:01.886Z,99585.94
2022-12-13T05:49:32.497Z,99580.00
2022-12-13T05:52:01.093Z,99583.41
2022-12-13T05:54:31.143Z,99581.66
2022-12-13T05:56:59.684Z,99574.78
2022-12-13T05:59:28.131Z,99572.09
2022-12-13T06:01:56.540Z,99577.06
2022-12-13T06:04:25.190Z,99576.97
2022-12-13T06:06:54.346Z,99578.63
2022-12-13T06:09:23.104Z,99580.28
2022-12-13T06:12:01.418Z,99573.41
2022-12-13T06:14:30.003Z,99580.91
2022-12-13T06:16:58.446Z,99574.94
2022-12-13T06:19:27.266Z,99576.59
2022-12-13T06:21:57.159Z,99582.50
2022-12-13T06:24:27.371Z,99585.78
2022-12-13T06:26:57.232Z,99585.66
2022-12-13T06:29:26.103Z,99580.56
2022-12-13T06:32:01.891Z,99591.66
2022-12-13T06:34:34.070Z,99588.06
2022-12-13T06:37:04.690Z,99586.44
2022-12-13T06:39:33.740Z,99582.00
2022-12-13T06:42:07.175Z,99582.00
2022-12-13T06:44:37.306Z,99580.97
2022-12-13T06:47:11.089Z,99569.78
2022-12-13T06:49:44.389Z,99575.75
2022-12-13T06:52:15.397Z,99575.66
2022-12-13T06:54:44.568Z,99573.88
2022-12-13T06:57:14.881Z,99581.53
2022-12-13T06:59:43.955Z,99577.97
2022-12-13T07:02:15.650Z,99581.25
2022-12-13T07:04:56.564Z,99577.81
2022-12-13T07:07:26.692Z,99577.72
2022-12-13T07:09:55.448Z,99587.91
2022-12-13T07:12:26.607Z,99584.34
2022-12-13T07:14:55.119Z,99583.47
2022-12-13T07:17:32.481Z,99581.78
2022-12-13T07:20:07.803Z,99576.59
2022-12-13T07:22:46.687Z,99580.66
2022-12-13T07:25:26.645Z,99577.84
2022-12-13T07:28:02.153Z,99583.81
2022-12-13T07:30:33.744Z,99591.47
2022-12-13T07:33:03.096Z,99586.25
2022-12-13T07:35:32.507Z,99587.13
2022-12-13T07:38:07.724Z,99583.59
2022-12-13T07:40:36.419Z,99590.44
2022-12-13T07:43:07.469Z,99588.69
2022-12-13T07:45:35.997Z,99584.34
2022-12-13T07:48:08.955Z,99586.91
2022-12-13T07:50:38.077Z,99595.28
2022-12-13T07:53:08.781Z,99592.75
2022-12-13T07:55:38.619Z,99588.56
2022-12-13T07:58:12.006Z,99590.22
2022-12-13T08:00:46.332Z,99599.50
2022-12-13T08:03:18.351Z,99589.94
2022-12-13T08:06:01.175Z,99602.78
2022-12-13T08:08:30.786Z,99602.66
2022-12-13T08:11:04.607Z,99603.56
2022-12-13T08:13:35.174Z,99609.31
2022-12-13T08:16:27.206Z,99599.91
2022-12-13T08:19:02.823Z,99602.31
2022-12-13T08:24:26.694Z,99607.31
2022-12-13T08:26:57.408Z,99600.53
2022-12-13T08:29:34.219Z,99602.44
2022-12-13T08:32:05.807Z,99602.44
2022-12-13T08:34:34.184Z,99606.78
2022-12-13T08:37:04.008Z,99604.97
2022-12-13T08:39:35.332Z,99607.53
2022-12-13T08:42:16.147Z,99605.13
2022-12-13T08:44:48.771Z,99599.91
2022-12-13T08:47:24.212Z,99596.31
2022-12-13T08:50:01.439Z,99608.41
2022-12-13T08:52:39.758Z,99607.53
2022-12-13T08:55:10.674Z,99610.06
2022-12-13T08:57:40.618Z,99610.06
2022-12-13T09:00:14.084Z,99616.94
2022-12-13T09:02:42.733Z,99608.28
2022-12-13T09:05:13.112Z,99610.97
2022-12-13T09:08:02.789Z,99616.94
2022-12-13T09:10:38.785Z,99615.16
2022-12-13T09:13:11.803Z,99617.84
2022-12-13T09:15:45.917Z,99611.09
2022-12-13T09:18:24.404Z,99615.38
2022-12-13T09:20:54.081Z,99612.09
2022-12-13T09:23:46.051Z,99613.88
2022-12-13T09:26:17.224Z,99599.63
2022-12-13T09:28:46.235Z,99610.78
2022-12-13T09:31:19.591Z,99614.34
2022-12-13T09:33:48.399Z,99609.28
2022-12-13T09:36:19.098Z,99610.28
2022-12-13T09:38:47.960Z,99613.72
2022-12-13T09:41:28.548Z,99604.56
2022-12-13T09:44:03.286Z,99608.00
2022-12-13T09:46:44.556Z,99614.13
2022-12-13T09:49:22.877Z,99608.00
2022-12-13T09:52:11.422Z,99613.34
2022-12-13T09:54:49.388Z,99617.66
2022-12-13T09:57:30.854Z,99613.59
2022-12-13T10:00:01.815Z,99605.94
2022-12-13T10:02:45.615Z,99608.75
2022-12-13T10:05:22.437Z,99603.00
2022-12-13T10:07:54.132Z,99602.38
2022-12-13T10:10:23.514Z,99596.47
2022-12-13T10:13:00.912Z,99593.44
2022-12-13T10:15:31.767Z,99597.75
2022-12-13T10:18:05.603Z,99589.31
2022-12-13T10:20:35.970Z,99593.66
2022-12-13T10:26:02.674Z,99599.91
2022-12-13T10:28:34.618Z,99594.91
2022-12-13T10:31:03.656Z,99590.69
2022-12-13T10:33:36.991Z,99580.50
2022-12-13T10:36:21.053Z,99577.34
2022-12-13T10:38:51.791Z,99574.66
2022-12-13T10:41:34.781Z,99577.34
2022-12-13T10:44:18.622Z,99573.13
2022-12-13T10:46:54.286Z,99583.41
2022-12-13T10:49:26.691Z,99569.16
2022-12-13T10:51:56.063Z,99562.41
2022-12-13T10:54:38.352Z,99567.72
2022-12-13T10:57:12.430Z,99563.66
2022-12-13T10:59:41.701Z,99559.31
2022-12-13T11:02:33.021Z,99556.13
2022-12-13T11:05:25.596Z,99549.38
2022-12-13T11:07:55.267Z,99547.72
2022-12-13T11:10:30.903Z,99546.16
2022-12-13T11:13:03.715Z,99547.19
2022-12-13T11:15:37.290Z,99538.03
2022-12-13T11:18:09.614Z,99542.31
2022-12-13T11:20:54.062Z,99533.00
2022-12-13T11:23:30.776Z,99528.03
2022-12-13T11:26:07.337Z,99523.97
2022-12-13T11:29:16.421Z,99508.69
2022-12-13T11:31:57.309Z,99523.97
2022-12-13T11:34:37.884Z,99522.41
2022-12-13T11:37:21.406Z,99506.47
2022-12-13T11:40:01.344Z,99503.03
2022-12-13T11:42:36.093Z,99499.84
2022-12-13T11:45:13.208Z,99499.84
2022-12-13T11:47:48.390Z,99498.97
2022-12-13T11:50:33.153Z,99497.41
2022-12-13T11:53:22.800Z,99500.06
2022-12-13T11:55:58.600Z,99493.31
2022-12-13T12:01:28.644Z,99490.22
2022-12-13T12:04:07.984Z,99493.03
2022-12-13T12:06:43.742Z,99492.34
2022-12-13T12:09:17.047Z,99488.13
2022-12-13T12:11:50.174Z,99486.34
2022-12-13T12:14:24.502Z,99482.81
2022-12-13T12:16:55.595Z,99484.59
2022-12-13T12:19:29.278Z,99489.03
2022-12-13T12:22:18.867Z,99489.28
2022-12-13T12:25:01.817Z,99486.81
2022-12-13T12:27:39.751Z,99475.72
2022-12-13T12:30:22.515Z,99466.69
2022-12-13T12:33:10.705Z,99463.38
2022-12-13T12:36:06.530Z,99469.22
2022-12-13T12:39:07.113Z,99465.78
2022-12-13T12:41:52.745Z,99466.69
2022-12-13T12:44:33.674Z,99464.13
2022-12-13T12:48:08.982Z,99459.03
2022-12-13T12:50:43.125Z,99466.69
2022-12-13T12:53:36.604Z,99460.69
2022-12-13T12:56:23.031Z,99470.22
2022-12-13T12:59:05.496Z,99459.13
2022-12-13T13:01:57.461Z,99464.22
2022-12-13T13:04:31.816Z,99461.59
2022-12-13T13:07:23.401Z,99461.59
2022-12-13T13:09:54.586Z,99457.38
2022-12-13T13:12:30.025Z,99463.13
2022-12-13T13:15:01.045Z,99458.91
2022-12-13T13:17:48.439Z,99453.94
2022-12-13T13:20:24.766Z,99453.94
2022-12-13T13:23:17.677Z,99460.00
2022-12-13T13:26:22.924Z,99460.69
2022-12-13T13:28:35.442Z,99459.81
2022-12-13T13:31:09.211Z,99453.19
2022-12-13T13:33:47.908Z,99455.03
2022-12-13T13:36:47.221Z,99456.69
2022-12-13T13:39:19.320Z,99456.69
2022-12-13T13:42:10.598Z,99460.25
2022-12-13T13:45:22.281Z,99460.25
2022-12-13T13:48:27.809Z,99457.72
2022-12-13T13:52:24.552Z,99463.56
2022-12-13T13:55:15.661Z,99454.16
2022-12-13T13:58:47.631Z,99449.81
2022-12-13T14:01:49.479Z,99445.63
2022-12-13T14:05:30.122Z,99442.19
2022-12-13T14:08:30.100Z,99442.19
2022-12-13T14:11:26.783Z,99438.97
2022-12-13T14:14:49.903Z,99443.97
2022-12-13T14:18:29.523Z,99434.53
2022-12-13T14:21:09.844Z,99438.88
2022-12-13T14:23:58.564Z,99428.66
2022-12-13T14:26:41.752Z,99425.34
2022-12-13T14:29:15.772Z,99429.69
2022-12-13T14:31:46.962Z,99429.81
2022-12-13T14:34:24.480Z,99423.06
2022-12-13T14:37:02.100Z,99426.56
2022-12-13T14:39:34.642Z,99426.56
2022-12-13T14:42:22.799Z,99425.69
2022-12-13T14:44:51.575Z,99414.59
2022-12-13T14:47:21.282Z,99423.91
2022-12-13T14:49:55.518Z,99417.97
2022-12-13T14:52:27.762Z,99418.72
2022-12-13T14:55:00.845Z,99412.75
2022-12-13T14:57:32.390Z,99425.47
2022-12-13T15:00:22.796Z,99425.59
2022-12-13T15:02:53.668Z,99431.47
2022-12-13T15:05:29.348Z,99421.28
2022-12-13T15:07:58.718Z,99427.34
2022-12-13T15:10:40.154Z,99424.78
2022-12-13T15:13:19.622Z,99414.59
2022-12-13T15:15:55.953Z,99404.41
2022-12-13T15:18:26.492Z,99401.78
2022-12-13T15:20:59.206Z,99399.31
2022-12-13T15:23:40.237Z,99398.34
2022-12-13T15:26:28.576Z,99403.53
2022-12-13T15:29:01.208Z,99402.75
2022-12-13T15:31:30.205Z,99394.22
2022-12-13T15:34:29.128Z,99389.94
2022-12-13T15:37:01.091Z,99388.91
2022-12-13T15:39:31.068Z,99385.59
2022-12-13T15:42:01.583Z,99386.38
2022-12-13T15:44:33.654Z,99380.38
2022-12-13T15:47:08.453Z,99381.28
2022-12-13T15:49:41.589Z,99376.06
2022-12-13T15:52:32.920Z,99376.94
2022-12-13T15:55:28.494Z,99378.47
2022-12-13T15:57:59.679Z,99374.28
2022-12-13T16:00:32.338Z,99372.50
2022-12-13T16:03:09.339Z,99370.63
2022-12-13T16:05:42.071Z,99364.78
2022-12-13T16:08:27.397Z,99369.94
2022-12-13T16:10:56.699Z,99363.13
2022-12-13T16:13:30.145Z,99364.78
2022-12-13T16:16:08.920Z,99364.78
2022-12-13T16:18:47.715Z,99351.03
2022-12-13T16:21:16.698Z,99342.38
2022-12-13T16:23:48.410Z,99342.16
2022-12-13T16:26:25.496Z,99340.63
2022-12-13T16:28:58.574Z,99337.06
2022-12-13T16:31:35.404Z,99335.28
2022-12-13T16:34:04.340Z,99329.22
2022-12-13T16:36:33.270Z,99339.28
2022-12-13T16:39:02.500Z,99338.28
2022-12-13T16:41:31.209Z,99341.59
2022-12-13T16:44:04.386Z,99347.59
2022-12-13T16:47:14.342Z,99342.50
2022-12-13T16:49:26.468Z,99345.03
2022-12-13T16:51:55.583Z,99337.41
2022-12-13T16:54:25.831Z,99340.84
2022-12-13T16:56:55.327Z,99342.41
2022-12-13T16:59:27.338Z,99333.88
2022-12-13T17:01:56.229Z,99333.88
2022-12-13T17:04:27.110Z,99330.44
2022-12-13T17:06:56.538Z,99333.06
2022-12-13T17:09:25.613Z,99337.31
2022-12-13T17:11:54.210Z,99331.31
2022-12-13T17:14:23.986Z,99326.13
2022-12-13T17:16:52.432Z,99334.63
2022-12-13T17:19:20.891Z,99331.31
2022-12-13T17:21:49.919Z,99330.63
2022-12-13T17:24:18.409Z,99327.97
2022-12-13T17:26:53.763Z,99330.63
2022-12-13T17:29:25.487Z,99324.66
2022-12-13T17:31:54.779Z,99328.22
2022-12-13T17:34:23.419Z,99316.25
2022-12-13T17:36:52.348Z,99314.72
2022-12-13T17:39:21.505Z,99316.38
2022-12-13T17:41:55.154Z,99317.25
2022-12-13T17:44:26.736Z,99313.81
2022-12-13T17:46:56.104Z,99310.38
2022-12-13T17:49:25.305Z,99309.63
2022-12-13T17:51:54.815Z,99299.44
2022-12-13T17:54:25.177Z,99313.81
2022-12-13T17:56:54.753Z,99305.16
2022-12-13T17:59:25.338Z,99309.38
2022-12-13T18:01:54.350Z,99295.66
2022-12-13T18:04:23.274Z,99293.88
2022-12-13T18:06:52.691Z,99292.13
2022-12-13T18:09:21.140Z,99287.91
2022-12-13T18:11:49.668Z,99296.44
2022-12-13T18:14:18.013Z,99304.06
2022-12-13T18:16:47.920Z,99299.75
2022-12-13T18:19:16.568Z,99305.63
2022-12-13T18:21:45.088Z,99302.06
2022-12-13T18:24:14.081Z,99300.31
2022-12-13T18:26:42.476Z,99296.13
2022-12-13T18:29:10.885Z,99295.22
2022-12-13T18:31:39.758Z,99290.13
2022-12-13T18:34:10.178Z,99294.41
2022-12-13T18:36:39.547Z,99290.91
2022-12-13T18:39:08.047Z,99296.00
2022-12-13T18:41:36.528Z,99286.69
2022-12-13T18:44:07.972Z,99293.44
2022-12-13T18:46:41.301Z,99291.66
2022-12-13T18:49:15.319Z,99278.72
2022-12-13T18:51:43.828Z,99292.31
2022-12-13T18:54:12.282Z,99286.56
2022-12-13T18:56:41.143Z,99283.25
2022-12-13T18:59:11.772Z,99267.97
2022-12-13T19:01:40.350Z,99278.16
2022-12-13T19:04:08.860Z,99271.28
2022-12-13T19:06:38.802Z,99284.91
2022-12-13T19:09:07.370Z,99296.13
2022-12-13T19:11:35.931Z,99284.91
2022-12-13T19:14:04.338Z,99282.38
2022-12-13T19:16:33.485Z,99282.25
2022-12-13T19:19:02.517Z,99285.56
2022-12-13T19:21:30.890Z,99282.94
2022-12-13T19:24:01.425Z,99286.38
2022-12-13T19:26:30.696Z,99290.66
2022-12-13T19:29:00.391Z,99288.91
2022-12-13T19:31:32.338Z,99288.03
2022-12-13T19:34:03.534Z,99288.03
2022-12-13T19:36:34.360Z,99286.47
2022-12-13T19:39:04.558Z,99282.25
2022-12-13T19:41:33.493Z,99276.38
2022-12-13T19:44:04.557Z,99273.84
2022-12-13T19:46:33.115Z,99274.63
2022-12-13T19:49:01.706Z,99269.50
2022-12-13T19:51:34.434Z,99266.00
2022-12-13T19:54:07.821Z,99265.88
2022-12-13T19:56:36.359Z,99263.22
2022-12-13T19:59:04.969Z,99256.34
2022-12-13T20:01:34.152Z,99259.66
2022-12-13T20:04:02.722Z,99251.81
2022-12-13T20:06:31.414Z,99256.78
2022-12-13T20:09:00.004Z,99248.94
2022-12-13T20:11:29.909Z,99245.50
2022-12-13T20:13:58.320Z,99236.09
2022-12-13T20:16:28.165Z,99235.22
2022-12-13T20:18:57.578Z,99240.19
2022-12-13T20:21:26.678Z,99229.03
2022-12-13T20:23:55.780Z,99228.13
2022-12-13T20:26:27.532Z,99232.34
2022-12-13T20:28:58.093Z,99226.47
2022-12-13T20:31:29.965Z,99224.91
2022-12-13T20:34:00.499Z,99219.81
2022-12-13T20:36:31.364Z,99222.59
2022-12-13T20:39:02.291Z,99207.31
2022-12-13T20:41:33.089Z,99218.50
2022-12-13T20:44:05.820Z,99215.06
2022-12-13T20:46:34.744Z,99212.41
2022-12-13T20:49:06.262Z,99199.56
2022-12-13T20:51:36.021Z,99201.22
2022-12-13T20:54:04.794Z,99194.28
2022-12-13T20:56:35.986Z,99184.97
2022-12-13T20:59:07.853Z,99190.06
2022-12-13T21:01:38.897Z,99179.00
2022-12-13T21:04:10.266Z,99174.78
2022-12-13T21:06:41.726Z,99173.91
2022-12-13T21:09:12.287Z,99164.63
2022-12-13T21:11:43.028Z,99162.84
2022-12-13T21:14:21.195Z,99156.97
2022-12-13T21:16:52.347Z,99161.94
2022-12-13T21:19:23.776Z,99143.34
2022-12-13T21:21:54.382Z,99147.56
2022-12-13T21:24:24.712Z,99142.47
2022-12-13T21:26:56.355Z,99147.56
2022-12-13T21:29:26.242Z,99144.13
2022-12-13T21:31:55.168Z,99145.78
2022-12-13T21:34:24.337Z,99139.59
2022-12-13T21:36:53.870Z,99133.63
2022-12-13T21:39:24.676Z,99138.72
2022-12-13T21:41:54.576Z,99132.75
2022-12-13T21:44:25.110Z,99135.38
2022-12-13T21:47:11.932Z,99126.75
2022-12-13T21:49:41.005Z,99118.88
2022-12-13T21:52:10.376Z,99116.34
2022-12-13T21:54:38.908Z,99109.59
2022-12-13T21:57:25.340Z,99100.19
2022-12-13T21:59:55.259Z,99106.97
2022-12-13T22:02:24.939Z,99104.19
2022-12-13T22:04:55.442Z,99091.47
2022-12-13T22:07:26.662Z,99080.63
2022-12-13T22:09:56.319Z,99075.41
2022-12-13T22:12:30.478Z,99088.16
2022-12-13T22:15:00.396Z,99081.28
2022-12-13T22:17:35.200Z,99073.53
2022-12-13T22:20:08.479Z,99081.16
2022-12-13T22:22:38.601Z,99082.06
2022-12-13T22:25:08.688Z,99077.06
2022-12-13T22:27:37.196Z,99073.75
2022-12-13T22:30:10.354Z,99081.59
2022-12-13T22:32:44.214Z,99084.38
2022-12-13T22:35:14.012Z,99080.25
2022-12-13T22:37:42.426Z,99076.06
2022-12-13T22:40:12.556Z,99071.84
2022-12-13T22:42:41.426Z,99077.81
2022-12-13T22:45:18.913Z,99076.28
2022-12-13T22:47:47.327Z,99065.31
2022-12-13T22:50:16.559Z,99059.44
2022-12-13T22:52:44.954Z,99051.03
2022-12-13T22:55:13.478Z,99064.63
2022-12-13T22:57:41.871Z,99065.31
2022-12-13T23:00:19.397Z,99055.91
2022-12-13T23:02:48.605Z,99057.47
2022-12-13T23:05:17.158Z,99054.78
2022-12-13T23:07:48.719Z,99050.41
2022-12-13T23:10:34.713Z,99055.50
2022-12-13T23:13:03.472Z,99063.69
2022-12-13T23:15:38.697Z,99046.53
2022-12-13T23:18:07.451Z,99053.09
2022-12-13T23:20:36.024Z,99052.09
2022-12-13T23:23:04.924Z,99043.38
2022-12-13T23:25:34.004Z,99053.19
2022-12-13T23:28:02.343Z,99048.03
2022-12-13T23:30:32.469Z,99052.22
2022-12-13T23:33:01.000Z,99041.16
2022-12-13T23:35:29.571Z,99050.44
2022-12-13T23:37:57.853Z,99047.13
2022-12-13T23:40:26.307Z,99040.41
2022-12-13T23:42:54.734Z,99042.06
2022-12-13T23:45:24.228Z,99046.38
2022-12-13T23:47:54.290Z,99040.28
2022-12-13T23:50:22.655Z,99036.72
2022-12-13T23:52:51.048Z,99030.88
2022-12-13T23:55:19.784Z,99034.94
2022-12-13T23:57:48.146Z,99024.91
